Time;durP1;ratioP1;P1;durP2;ratioP2;P2;SDS_P1;SDS_P2;PMS_P1;PMS_P2;Temp;Humidity;BMP_temperature;BMP_pressure;BME280_temperature;BME280_humidity;BME280_pressure;Samples;Min_cycle;Max_cycle;Signal;HPM_P1;HPM_P2
2022/11/21 00:00:03;;;;;;;0.40;0.40;;;23.80;50.10;;;;;;5051520;28;20194;-45
2022/11/21 00:02:34;;;;;;;1.25;0.75;;;23.80;50.20;;;;;;5052116;28;20714;-45
2022/11/21 00:05:05;;;;;;;1.10;0.60;;;23.80;49.90;;;;;;5048473;28;20188;-44
2022/11/21 00:07:36;;;;;;;1.45;0.65;;;23.80;50.00;;;;;;5052379;28;20192;-45
2022/11/21 00:10:09;;;;;;;1.55;0.60;;;23.90;50.00;;;;;;5052873;28;20206;-48
2022/11/21 00:12:42;;;;;;;0.88;0.50;;;23.90;50.00;;;;;;5051615;28;20220;-48
2022/11/21 00:15:13;;;;;;;1.30;0.47;;;23.90;49.80;;;;;;5052195;28;20238;-47
2022/11/21 00:17:44;;;;;;;2.10;0.50;;;24.00;49.90;;;;;;5051519;28;20187;-56
2022/11/21 00:20:14;;;;;;;1.63;0.50;;;24.00;49.90;;;;;;5057857;28;20696;-44
2022/11/21 00:22:45;;;;;;;1.00;0.57;;;24.00;49.90;;;;;;5071732;28;20648;-48
2022/11/21 00:25:17;;;;;;;1.58;0.47;;;24.00;50.10;;;;;;5071022;28;20238;-46
2022/11/21 00:27:49;;;;;;;0.82;0.40;;;24.00;50.20;;;;;;5071982;28;20202;-48
2022/11/21 00:30:21;;;;;;;0.73;0.50;;;24.00;50.40;;;;;;5070812;28;20186;-45
2022/11/21 00:32:51;;;;;;;1.80;0.60;;;24.10;50.50;;;;;;5071903;28;20225;-47
2022/11/21 00:35:22;;;;;;;1.27;0.55;;;24.10;50.50;;;;;;5070676;28;20218;-45
2022/11/21 00:37:53;;;;;;;1.42;0.50;;;24.10;50.50;;;;;;5071191;28;20202;-47
2022/11/21 00:40:24;;;;;;;1.30;0.43;;;24.20;50.70;;;;;;5070734;28;20191;-51
2022/11/21 00:42:56;;;;;;;1.35;0.65;;;24.20;50.70;;;;;;5070862;28;20327;-47
2022/11/21 00:45:27;;;;;;;1.38;0.68;;;24.20;50.70;;;;;;5056235;28;20191;-45
2022/11/21 00:47:58;;;;;;;0.60;0.50;;;24.20;50.60;;;;;;5051181;28;20245;-44
2022/11/21 00:50:29;;;;;;;0.75;0.40;;;24.20;50.70;;;;;;5051639;28;20195;-44
2022/11/21 00:53:00;;;;;;;0.60;0.50;;;24.30;50.70;;;;;;5050777;28;20217;-44
2022/11/21 00:55:30;;;;;;;3.25;0.73;;;24.30;50.70;;;;;;5051434;28;20231;-52
2022/11/21 00:58:03;;;;;;;0.50;0.50;;;24.30;50.70;;;;;;5050807;28;20678;-45
2022/11/21 01:00:34;;;;;;;1.15;0.65;;;24.30;50.90;;;;;;5050694;28;20570;-59
2022/11/21 01:03:04;;;;;;;1.02;0.60;;;24.30;50.90;;;;;;5050711;28;20714;-46
2022/11/21 01:05:36;;;;;;;1.58;0.50;;;24.40;50.80;;;;;;5049835;28;20196;-44
2022/11/21 01:08:07;;;;;;;0.40;0.40;;;24.40;50.80;;;;;;5051197;28;20203;-46
2022/11/21 01:10:38;;;;;;;0.52;0.30;;;24.40;50.50;;;;;;5050905;28;20203;-47
2022/11/21 01:13:11;;;;;;;1.25;0.30;;;24.30;50.50;;;;;;5051079;28;20219;-44
2022/11/21 01:15:42;;;;;;;0.50;0.40;;;24.40;50.70;;;;;;5051401;28;20528;-44
2022/11/21 01:18:12;;;;;;;36.67;33.53;;;24.40;50.90;;;;;;5050915;28;20199;-50
2022/11/21 01:20:43;;;;;;;18.42;16.83;;;24.40;51.10;;;;;;5050081;28;20183;-45
2022/11/21 01:23:14;;;;;;;5.80;5.40;;;24.40;51.20;;;;;;5049514;28;20211;-47
2022/11/21 01:25:45;;;;;;;1.27;0.52;;;24.50;51.10;;;;;;5049568;28;20666;-48
2022/11/21 01:28:17;;;;;;;0.52;0.32;;;24.50;50.90;;;;;;5050905;28;20722;-44
2022/11/21 01:30:48;;;;;;;1.70;0.40;;;24.50;50.60;;;;;;5049764;28;20192;-45
2022/11/21 01:33:19;;;;;;;0.55;0.40;;;24.50;50.40;;;;;;5050401;28;20192;-44
2022/11/21 01:35:50;;;;;;;1.70;0.40;;;24.50;50.30;;;;;;5049979;28;20219;-45
2022/11/21 01:38:20;;;;;;;1.00;0.30;;;24.50;50.10;;;;;;5050106;28;20202;-45
2022/11/21 01:40:51;;;;;;;0.52;0.40;;;24.40;50.00;;;;;;5050749;28;20199;-45
2022/11/21 01:43:24;;;;;;;3.00;0.50;;;24.40;49.90;;;;;;5049838;28;20760;-44
2022/11/21 01:45:59;;;;;;;0.93;0.35;;;24.40;49.80;;;;;;5050847;28;20561;-52
2022/11/21 01:48:34;;;;;;;1.02;0.30;;;24.30;49.50;;;;;;5050346;28;20199;-45
2022/11/21 01:51:10;;;;;;;1.40;0.45;;;24.40;49.20;;;;;;5050642;28;20191;-55
2022/11/21 01:53:43;;;;;;;0.98;0.30;;;24.30;48.90;;;;;;5050032;28;20191;-45
2022/11/21 01:56:14;;;;;;;2.05;0.50;;;24.30;48.80;;;;;;5040492;28;20226;-45
2022/11/21 01:58:49;;;;;;;0.68;0.30;;;24.30;48.80;;;;;;5049691;28;20208;-43
2022/11/21 02:01:20;;;;;;;0.90;0.40;;;24.20;48.80;;;;;;5049780;22;20224;-49
2022/11/21 02:03:53;;;;;;;0.95;0.40;;;24.20;48.90;;;;;;4991235;28;20202;-56
2022/11/21 02:06:24;;;;;;;0.80;0.40;;;24.20;48.90;;;;;;4982070;28;20571;-51
2022/11/21 02:08:55;;;;;;;1.35;0.32;;;24.20;49.10;;;;;;4991630;28;20197;-56
2022/11/21 02:11:32;;;;;;;0.80;0.40;;;24.20;49.20;;;;;;4990347;28;20221;-51
2022/11/21 02:14:05;;;;;;;0.38;0.30;;;24.20;49.20;;;;;;4991194;28;20200;-48
2022/11/21 02:16:37;;;;;;;0.50;0.30;;;24.20;49.60;;;;;;4991431;28;20225;-51
2022/11/21 02:19:10;;;;;;;1.08;0.52;;;24.20;49.70;;;;;;4991680;28;20255;-54
2022/11/21 02:21:50;;;;;;;0.85;0.40;;;24.20;49.80;;;;;;4990980;28;20225;-56
2022/11/21 02:24:27;;;;;;;0.38;0.30;;;24.20;49.90;;;;;;5000426;28;20661;-48
2022/11/21 02:27:01;;;;;;;1.02;0.40;;;24.20;50.00;;;;;;5008612;28;20236;-53
2022/11/21 02:29:33;;;;;;;2.47;0.47;;;24.20;50.00;;;;;;4991572;28;20193;-53
2022/11/21 02:32:06;;;;;;;0.88;0.40;;;24.20;50.10;;;;;;4990575;28;20236;-59
2022/11/21 02:34:37;;;;;;;0.25;0.22;;;24.20;50.40;;;;;;4990268;28;20201;-51
2022/11/21 02:37:09;;;;;;;0.22;0.22;;;24.20;50.50;;;;;;4991203;28;20202;-50
2022/11/21 02:39:40;;;;;;;0.40;0.32;;;24.20;50.50;;;;;;4990242;28;20658;-55
2022/11/21 02:42:18;;;;;;;1.10;0.43;;;24.30;50.50;;;;;;4990750;28;20225;-49
2022/11/21 02:44:57;;;;;;;1.13;0.50;;;24.30;50.60;;;;;;4994413;28;20197;-48
2022/11/21 02:47:29;;;;;;;2.15;0.50;;;24.30;50.70;;;;;;4994898;28;20194;-48
2022/11/21 02:50:04;;;;;;;0.80;0.50;;;24.30;50.80;;;;;;4994056;28;20202;-56
2022/11/21 02:52:35;;;;;;;0.60;0.50;;;24.30;50.90;;;;;;4994737;28;20595;-56
2022/11/21 02:55:07;;;;;;;1.42;0.70;;;24.40;51.00;;;;;;4993770;28;20221;-45
2022/11/21 02:57:40;;;;;;;0.93;0.52;;;24.40;51.00;;;;;;4994882;28;20216;-49
2022/11/21 03:03:17;;;;;;;2.92;0.70;;;24.40;51.00;;;;;;5032052;28;20220;-42
2022/11/21 03:05:48;;;;;;;3.58;0.80;;;24.40;51.20;;;;;;5032876;28;20196;-44
2022/11/21 03:08:18;;;;;;;1.80;0.70;;;24.50;51.20;;;;;;5032853;28;20208;-42
2022/11/21 03:10:49;;;;;;;4.20;0.95;;;24.50;51.20;;;;;;5033276;28;20222;-43
2022/11/21 03:13:22;;;;;;;3.20;1.50;;;24.50;51.30;;;;;;5033131;28;20188;-46
2022/11/21 03:15:54;;;;;;;2.38;0.85;;;24.50;51.40;;;;;;5046091;28;20234;-43
2022/11/21 03:18:24;;;;;;;2.83;0.88;;;24.60;51.60;;;;;;5042541;28;20228;-44
2022/11/21 03:20:55;;;;;;;2.85;0.90;;;24.60;51.70;;;;;;5033501;28;20208;-42
2022/11/21 03:23:26;;;;;;;2.47;1.33;;;24.60;51.70;;;;;;5033199;28;20204;-42
2022/11/21 03:25:57;;;;;;;2.65;0.85;;;24.60;51.80;;;;;;5032829;28;20207;-42
2022/11/21 03:28:29;;;;;;;1.85;1.00;;;24.60;51.80;;;;;;5033734;28;20192;-42
2022/11/21 03:31:00;;;;;;;2.80;0.90;;;24.60;51.80;;;;;;5033109;28;20211;-43
2022/11/21 03:33:31;;;;;;;3.38;1.10;;;24.70;51.80;;;;;;5033321;28;20233;-42
2022/11/21 03:36:01;;;;;;;2.38;0.95;;;24.70;51.90;;;;;;5032573;28;20605;-46
2022/11/21 03:38:32;;;;;;;1.73;0.80;;;24.70;51.90;;;;;;5032965;28;20196;-43
2022/11/21 03:41:28;;;;;;;1.58;0.90;;;24.70;51.90;;;;;;5033020;28;20205;-48
2022/11/21 03:43:59;;;;;;;1.10;0.70;;;24.70;51.90;;;;;;5032340;28;20196;-44
2022/11/21 03:46:30;;;;;;;2.13;0.98;;;24.70;52.00;;;;;;5033426;28;20206;-50
2022/11/21 03:49:01;;;;;;;1.33;0.55;;;24.70;52.00;;;;;;5032754;28;20199;-44
2022/11/21 03:51:32;;;;;;;2.15;0.60;;;24.80;51.90;;;;;;5033118;28;20219;-43
2022/11/21 03:54:03;;;;;;;1.23;0.47;;;24.80;51.70;;;;;;5035718;28;20654;-43
2022/11/21 03:56:34;;;;;;;0.93;0.55;;;24.80;51.20;;;;;;5012524;28;20723;-48
2022/11/21 03:59:07;;;;;;;1.25;0.40;;;24.80;51.10;;;;;;5026455;28;20196;-47
2022/11/21 04:01:37;;;;;;;0.68;0.30;;;24.80;51.00;;;;;;5055061;22;20218;-50
2022/11/21 04:04:08;;;;;;;0.70;0.40;;;24.80;50.80;;;;;;5072139;28;20673;-59
2022/11/21 04:06:39;;;;;;;0.40;0.30;;;24.80;50.60;;;;;;5072066;28;20191;-52
2022/11/21 04:09:10;;;;;;;1.23;0.30;;;24.80;49.80;;;;;;5068808;28;20214;-52
2022/11/21 04:11:41;;;;;;;0.30;0.30;;;24.80;49.90;;;;;;5067949;28;20207;-48
2022/11/21 04:14:13;;;;;;;1.42;0.25;;;24.80;50.00;;;;;;5057081;28;20203;-49
2022/11/21 04:16:44;;;;;;;1.00;0.50;;;24.80;49.40;;;;;;5031317;28;20239;-52
2022/11/21 04:19:15;;;;;;;0.30;0.30;;;24.80;49.20;;;;;;5060570;28;20187;-47
2022/11/21 04:21:46;;;;;;;1.08;0.30;;;24.80;49.00;;;;;;5072243;28;20701;-53
2022/11/21 04:24:16;;;;;;;0.85;0.20;;;24.80;48.20;;;;;;5063807;28;20188;-56
2022/11/21 04:26:47;;;;;;;1.65;0.17;;;24.80;48.10;;;;;;5031181;28;20230;-57
2022/11/21 04:29:20;;;;;;;2.83;0.28;;;24.80;48.00;;;;;;5060423;28;20662;-55
2022/11/21 04:31:50;;;;;;;0.80;0.20;;;24.70;47.80;;;;;;5071098;28;20215;-53
2022/11/21 04:34:21;;;;;;;0.80;0.20;;;24.70;47.70;;;;;;5071884;28;20209;-54
2022/11/21 04:36:52;;;;;;;0.95;0.20;;;24.70;48.20;;;;;;5071801;28;20226;-58
2022/11/21 04:39:22;;;;;;;0.43;0.20;;;24.70;48.40;;;;;;5071739;28;20217;-51
2022/11/21 04:41:53;;;;;;;0.73;0.20;;;24.70;48.20;;;;;;5070772;28;20267;-53
2022/11/21 04:44:27;;;;;;;0.57;0.10;;;24.70;48.00;;;;;;5059043;28;20649;-47
2022/11/21 04:46:58;;;;;;;0.10;0.10;;;24.70;48.20;;;;;;5030695;28;20517;-52
2022/11/21 04:49:29;;;;;;;0.40;0.20;;;24.70;48.00;;;;;;5060498;28;20638;-58
2022/11/21 04:52:00;;;;;;;0.75;0.20;;;24.70;47.60;;;;;;5071233;28;20239;-59
2022/11/21 04:54:31;;;;;;;0.15;0.15;;;24.70;48.00;;;;;;5070643;28;20201;-57
2022/11/21 04:57:01;;;;;;;0.10;0.10;;;24.70;48.30;;;;;;5070808;28;20222;-56
2022/11/21 04:59:34;;;;;;;0.10;0.10;;;24.80;48.40;;;;;;5071443;28;20191;-56
2022/11/21 05:02:06;;;;;;;0.20;0.20;;;24.80;48.20;;;;;;5072467;22;20221;-55
2022/11/21 05:04:37;;;;;;;0.43;0.25;;;24.80;48.40;;;;;;5069870;28;20195;-50
2022/11/21 05:07:08;;;;;;;1.02;0.10;;;24.90;48.20;;;;;;5070274;28;20190;-52
2022/11/21 05:09:39;;;;;;;0.35;0.17;;;24.80;48.40;;;;;;5070814;28;20198;-50
2022/11/21 05:15:00;;;;;;;0.65;0.25;;;24.90;48.40;;;;;;5052087;28;20577;-56
2022/11/21 05:17:31;;;;;;;0.22;0.20;;;24.90;48.20;;;;;;5050140;28;20695;-57
2022/11/21 05:20:02;;;;;;;0.47;0.40;;;24.90;48.30;;;;;;5068504;28;20191;-55
2022/11/21 05:22:33;;;;;;;0.73;0.28;;;24.90;47.80;;;;;;5071697;28;20219;-53
2022/11/21 05:25:08;;;;;;;0.43;0.20;;;24.90;47.50;;;;;;5049355;28;20627;-60
2022/11/21 05:27:38;;;;;;;1.20;0.50;;;25.00;47.80;;;;;;5031224;28;20215;-57
2022/11/21 05:30:12;;;;;;;5.63;0.55;;;24.90;47.90;;;;;;5067036;28;20191;-58
2022/11/21 05:32:44;;;;;;;1.65;0.38;;;25.00;48.10;;;;;;5070067;28;20214;-53
2022/11/21 05:35:15;;;;;;;0.70;0.30;;;25.00;48.20;;;;;;5070745;28;20280;-54
2022/11/21 05:37:46;;;;;;;0.50;0.30;;;25.00;48.20;;;;;;5070065;28;20229;-56
2022/11/21 05:40:18;;;;;;;1.23;0.65;;;25.10;48.30;;;;;;5071454;28;20195;-54
2022/11/21 05:45:37;;;;;;;0.75;0.20;;;25.10;48.30;;;;;;5040158;28;20203;-54
2022/11/21 05:48:08;;;;;;;0.63;0.30;;;25.10;48.40;;;;;;5043187;28;20561;-54
2022/11/21 05:50:40;;;;;;;0.90;0.30;;;25.10;48.40;;;;;;5070139;28;20194;-51
2022/11/21 05:53:10;;;;;;;0.50;0.30;;;25.10;48.40;;;;;;5070631;28;20217;-50
2022/11/21 05:55:41;;;;;;;0.85;0.32;;;25.20;48.50;;;;;;5069694;28;20257;-51
2022/11/21 05:58:12;;;;;;;0.77;0.38;;;25.20;48.40;;;;;;5070940;28;20560;-48
2022/11/21 06:00:47;;;;;;;0.50;0.20;;;25.30;48.50;;;;;;5062779;28;20625;-50
2022/11/21 06:03:30;;;;;;;1.67;0.40;;;25.20;48.50;;;;;;5050469;28;20302;-51
2022/11/21 06:06:04;;;;;;;2.22;0.30;;;25.30;48.50;;;;;;5070706;28;20217;-53
2022/11/21 06:08:36;;;;;;;0.85;0.40;;;25.30;48.20;;;;;;5070018;28;20194;-51
2022/11/21 06:11:08;;;;;;;0.25;0.20;;;25.30;48.20;;;;;;5070837;28;20195;-51
2022/11/21 06:13:39;;;;;;;0.65;0.50;;;25.40;48.30;;;;;;5070759;28;20199;-47
2022/11/21 06:16:13;;;;;;;1.13;0.50;;;25.30;48.30;;;;;;5031464;28;20220;-54
2022/11/21 06:18:46;;;;;;;1.95;0.38;;;25.40;48.30;;;;;;5034711;28;20203;-51
2022/11/21 06:21:19;;;;;;;2.03;1.17;;;25.40;48.30;;;;;;5034406;28;20591;-49
2022/11/21 06:23:52;;;;;;;2.28;1.45;;;25.40;48.20;;;;;;5033528;28;20196;-50
2022/11/21 06:26:24;;;;;;;2.92;1.60;;;25.40;48.10;;;;;;5034041;28;20687;-50
2022/11/21 06:28:55;;;;;;;8.57;3.95;;;25.40;48.10;;;;;;5034228;28;20283;-55
2022/11/21 06:31:29;;;;;;;10.73;4.78;;;25.50;48.10;;;;;;5034651;28;20216;-49
2022/11/21 06:34:01;;;;;;;15.30;5.93;;;25.50;48.10;;;;;;5034780;28;20295;-51
2022/11/21 06:36:32;;;;;;;16.85;6.75;;;25.50;48.10;;;;;;5034507;28;20222;-52
2022/11/21 06:39:03;;;;;;;16.02;6.47;;;25.50;48.10;;;;;;5034498;28;20200;-54
2022/11/21 06:41:34;;;;;;;17.80;7.43;;;25.60;48.10;;;;;;5034309;28;20231;-52
2022/11/21 06:44:04;;;;;;;17.83;7.53;;;25.60;48.10;;;;;;5034336;28;20222;-53
2022/11/21 06:46:37;;;;;;;22.17;7.70;;;25.60;48.20;;;;;;5034500;28;20199;-49
2022/11/21 06:49:08;;;;;;;17.15;7.00;;;25.60;48.10;;;;;;5034522;28;20200;-53
2022/11/21 06:51:38;;;;;;;21.52;7.88;;;25.60;48.20;;;;;;5034210;28;20224;-49
2022/11/21 06:54:10;;;;;;;18.75;7.55;;;25.60;48.00;;;;;;5037877;28;20200;-51
2022/11/21 06:56:41;;;;;;;16.65;7.03;;;25.60;47.90;;;;;;5048335;28;20223;-51
2022/11/21 06:59:12;;;;;;;19.92;7.10;;;25.60;47.90;;;;;;5054001;28;20203;-50
2022/11/21 07:01:44;;;;;;;18.20;6.63;;;25.60;47.70;;;;;;5054387;28;20231;-50
2022/11/21 07:04:15;;;;;;;14.52;6.32;;;25.70;47.70;;;;;;5053993;28;20199;-52
2022/11/21 07:06:46;;;;;;;14.38;6.13;;;25.60;47.50;;;;;;5053945;28;20286;-51
2022/11/21 07:09:16;;;;;;;13.30;5.82;;;25.60;47.50;;;;;;5054343;28;20222;-52
2022/11/21 07:11:47;;;;;;;12.68;5.72;;;25.70;47.60;;;;;;5053380;28;20215;-51
2022/11/21 07:14:18;;;;;;;14.07;4.90;;;25.60;47.50;;;;;;5048437;28;20200;-54
2022/11/21 07:16:51;;;;;;;12.75;4.72;;;25.60;47.00;;;;;;5033799;28;20714;-53
2022/11/21 07:19:22;;;;;;;10.73;4.57;;;25.60;47.00;;;;;;5033442;28;20207;-52
2022/11/21 07:21:53;;;;;;;14.63;4.18;;;25.60;46.80;;;;;;5033698;28;20220;-49
2022/11/21 07:24:23;;;;;;;10.73;3.38;;;25.60;46.30;;;;;;5033663;28;20203;-49
2022/11/21 07:26:54;;;;;;;10.38;3.60;;;25.50;46.30;;;;;;5033806;28;20200;-49
2022/11/21 07:29:25;;;;;;;10.13;3.55;;;25.50;46.30;;;;;;5048736;28;20195;-47
2022/11/21 07:31:58;;;;;;;9.05;3.60;;;25.50;46.10;;;;;;5053068;28;20245;-50
2022/11/21 07:34:28;;;;;;;7.22;3.72;;;25.40;45.90;;;;;;5053390;28;20195;-53
2022/11/21 07:36:59;;;;;;;9.18;3.65;;;25.40;46.00;;;;;;5053212;28;20245;-49
2022/11/21 07:39:30;;;;;;;6.03;3.08;;;25.40;46.10;;;;;;5053769;28;20200;-49
2022/11/21 07:42:01;;;;;;;6.03;2.53;;;25.40;45.90;;;;;;5053142;28;20219;-59
2022/11/21 07:44:32;;;;;;;3.58;1.20;;;25.30;45.70;;;;;;5046214;28;20204;-56
2022/11/21 07:47:04;;;;;;;1.02;0.40;;;25.30;44.00;;;;;;5051161;28;20535;-49
2022/11/21 07:49:35;;;;;;;2.05;0.60;;;25.20;42.10;;;;;;5053308;28;20196;-43
2022/11/21 07:52:06;;;;;;;1.48;0.30;;;25.10;41.20;;;;;;5053044;28;20216;-47
2022/11/21 07:54:37;;;;;;;2.05;0.40;;;24.90;41.00;;;;;;5052936;28;20568;-47
2022/11/21 07:57:07;;;;;;;1.55;0.40;;;24.80;41.40;;;;;;5052439;28;20227;-48
2022/11/21 07:59:38;;;;;;;1.23;0.40;;;24.70;41.90;;;;;;5052801;28;20734;-48
2022/11/21 08:02:19;;;;;;;0.80;0.38;;;24.70;42.40;;;;;;5053126;28;20235;-42
2022/11/21 08:04:50;;;;;;;0.70;0.40;;;24.60;42.50;;;;;;5052729;28;20203;-51
2022/11/21 08:07:22;;;;;;;1.58;0.50;;;24.60;42.60;;;;;;5052699;28;20556;-49
2022/11/21 08:09:53;;;;;;;1.30;0.50;;;24.60;42.80;;;;;;5052602;28;20218;-51
2022/11/21 08:12:24;;;;;;;1.08;0.52;;;24.60;43.10;;;;;;5052249;28;20220;-45
2022/11/21 08:14:55;;;;;;;0.73;0.60;;;24.50;43.40;;;;;;5043959;28;20211;-47
2022/11/21 08:17:28;;;;;;;1.05;0.50;;;24.50;43.70;;;;;;5033882;28;20300;-48
2022/11/21 08:19:59;;;;;;;0.93;0.50;;;24.50;43.90;;;;;;5050561;28;20206;-50
2022/11/21 08:22:30;;;;;;;1.42;0.60;;;24.50;44.10;;;;;;5052460;28;20230;-55
2022/11/21 08:25:01;;;;;;;1.17;0.40;;;24.50;44.20;;;;;;5061503;28;20198;-49
2022/11/21 08:27:32;;;;;;;1.88;0.40;;;24.50;44.30;;;;;;5071126;28;20656;-46
2022/11/21 08:30:02;;;;;;;0.40;0.30;;;24.50;44.20;;;;;;5071609;28;20179;-47
2022/11/21 08:32:35;;;;;;;0.68;0.40;;;24.50;44.30;;;;;;5067682;28;20203;-47
2022/11/21 08:35:06;;;;;;;1.02;0.70;;;24.40;44.30;;;;;;5061952;28;20191;-51
2022/11/21 08:37:37;;;;;;;1.65;0.50;;;24.50;44.30;;;;;;5070949;28;20222;-49
2022/11/21 08:40:08;;;;;;;0.60;0.30;;;24.40;44.30;;;;;;5070552;28;20193;-49
2022/11/21 08:42:39;;;;;;;0.80;0.50;;;24.40;44.30;;;;;;5070926;28;20670;-52
2022/11/21 08:45:10;;;;;;;1.33;0.40;;;24.40;44.20;;;;;;5051628;28;20203;-48
2022/11/21 08:47:43;;;;;;;0.52;0.40;;;24.40;44.30;;;;;;5071775;28;20195;-54
2022/11/21 08:50:14;;;;;;;1.05;0.50;;;24.30;44.30;;;;;;5071381;28;20197;-48
2022/11/21 08:52:45;;;;;;;0.80;0.60;;;24.30;45.10;;;;;;5071447;28;20222;-53
2022/11/21 08:55:17;;;;;;;1.42;0.45;;;24.30;44.60;;;;;;5070963;28;20194;-51
2022/11/21 08:57:48;;;;;;;1.42;0.70;;;24.30;44.70;;;;;;5070697;28;20313;-43
2022/11/21 09:00:19;;;;;;;1.02;0.60;;;24.30;44.80;;;;;;5070655;28;20187;-42
2022/11/21 09:02:52;;;;;;;0.60;0.30;;;24.30;44.80;;;;;;5071155;28;20234;-44
2022/11/21 09:05:22;;;;;;;0.38;0.38;;;24.20;44.80;;;;;;5070423;28;20183;-43
2022/11/21 09:07:59;;;;;;;0.88;0.45;;;24.20;44.90;;;;;;5035957;28;20200;-45
2022/11/21 09:10:30;;;;;;;1.17;0.60;;;24.20;44.80;;;;;;5043749;28;20645;-45
2022/11/21 09:13:02;;;;;;;2.15;0.50;;;24.20;44.80;;;;;;5050460;28;20219;-43
2022/11/21 09:18:21;;;;;;;1.80;0.60;;;24.20;44.90;;;;;;5070810;28;20275;-44
2022/11/21 09:20:52;;;;;;;2.40;0.60;;;24.10;44.90;;;;;;5070921;28;20198;-44
2022/11/21 09:23:23;;;;;;;1.85;0.70;;;24.10;45.00;;;;;;5066686;28;20588;-46
2022/11/21 09:25:53;;;;;;;2.95;0.85;;;24.10;45.00;;;;;;5059936;28;20209;-42
2022/11/21 09:28:24;;;;;;;1.58;0.98;;;24.10;45.20;;;;;;5070372;28;20525;-42
2022/11/21 09:30:55;;;;;;;2.97;0.60;;;24.00;45.10;;;;;;5070188;28;20191;-42
2022/11/21 09:33:27;;;;;;;0.75;0.65;;;24.00;45.20;;;;;;5070924;28;20222;-42
2022/11/21 09:36:00;;;;;;;1.75;0.88;;;24.00;45.30;;;;;;5070036;28;20191;-44
2022/11/21 09:38:30;;;;;;;1.38;0.60;;;24.00;45.30;;;;;;5047628;28;20230;-43
2022/11/21 09:41:50;;;;;;;1.15;0.60;;;24.00;45.40;;;;;;5065295;28;20642;-43
2022/11/21 09:44:11;;;;;;;1.00;0.57;;;24.00;45.40;;;;;;5064146;28;20223;-43
2022/11/21 09:46:47;;;;;;;1.10;0.70;;;23.90;45.50;;;;;;5069961;28;20198;-42
2022/11/21 09:49:21;;;;;;;1.15;0.60;;;23.90;45.60;;;;;;5070342;28;20208;-42
2022/11/21 09:51:53;;;;;;;2.50;0.80;;;23.90;45.70;;;;;;5072435;28;20222;-44
2022/11/21 09:54:31;;;;;;;1.13;0.60;;;23.90;45.80;;;;;;5074227;28;20207;-43
2022/11/21 09:57:03;;;;;;;2.15;0.80;;;23.80;45.80;;;;;;5033948;28;20563;-43
2022/11/21 09:59:38;;;;;;;2.35;0.80;;;23.80;45.80;;;;;;5036255;28;20286;-42
2022/11/21 10:02:16;;;;;;;1.02;0.68;;;23.80;45.80;;;;;;5073989;28;20222;-43
2022/11/21 10:04:50;;;;;;;1.25;0.60;;;23.80;45.80;;;;;;5074731;28;20195;-43
2022/11/21 10:07:26;;;;;;;1.02;0.73;;;23.70;45.80;;;;;;5074125;28;20213;-43
2022/11/21 10:10:20;;;;;;;2.50;0.80;;;23.70;45.80;;;;;;5067381;28;20191;-46
2022/11/21 10:13:03;;;;;;;1.77;0.82;;;23.70;45.80;;;;;;5033279;28;20216;-45
2022/11/21 10:15:48;;;;;;;1.08;0.50;;;23.70;45.80;;;;;;5051929;28;20198;-43
2022/11/21 10:18:50;;;;;;;1.40;0.70;;;23.70;45.80;;;;;;5074073;28;20318;-42
2022/11/21 10:21:48;;;;;;;2.10;0.40;;;23.70;45.90;;;;;;5068320;28;20186;-42
2022/11/21 10:24:50;;;;;;;0.93;0.60;;;23.60;46.00;;;;;;5048934;28;20196;-45
2022/11/21 10:27:31;;;;;;;1.15;0.55;;;23.60;46.10;;;;;;5029432;28;20215;-43
2022/11/21 10:30:06;;;;;;;1.45;0.70;;;23.60;46.20;;;;;;5040758;28;20186;-46
2022/11/21 10:32:42;;;;;;;1.00;0.55;;;23.50;46.20;;;;;;5047438;28;20682;-44
2022/11/21 10:35:18;;;;;;;1.65;0.80;;;23.50;46.20;;;;;;5058203;28;20201;-43
2022/11/21 10:37:53;;;;;;;1.90;0.80;;;23.50;46.20;;;;;;5073382;28;20686;-43
2022/11/21 10:40:36;;;;;;;1.52;0.50;;;23.40;46.10;;;;;;5073324;28;20529;-44
2022/11/21 10:45:58;;;;;;;1.13;0.70;;;23.40;46.10;;;;;;5036739;28;20202;-49
2022/11/21 10:48:29;;;;;;;1.08;0.60;;;23.40;46.10;;;;;;5034571;28;20204;-53
2022/11/21 10:51:17;;;;;;;1.48;0.60;;;23.40;46.10;;;;;;5034422;28;20211;-50
2022/11/21 10:56:51;;;;;;;2.05;0.80;;;23.40;46.00;;;;;;5034167;28;20254;-48
2022/11/21 10:59:27;;;;;;;1.92;0.70;;;23.40;46.00;;;;;;5033975;28;20722;-49
2022/11/21 11:02:02;;;;;;;2.72;0.80;;;23.30;45.90;;;;;;5034335;28;20224;-53
2022/11/21 11:04:34;;;;;;;1.48;0.60;;;23.30;46.00;;;;;;5032579;28;20196;-48
2022/11/21 11:07:23;;;;;;;1.13;0.65;;;23.30;46.00;;;;;;5033553;28;20283;-52
2022/11/21 11:10:16;;;;;;;0.98;0.50;;;23.20;46.10;;;;;;5047596;28;20191;-49
2022/11/21 11:15:38;;;;;;;2.47;0.77;;;23.20;46.10;;;;;;5038020;28;20218;-51
2022/11/21 11:18:15;;;;;;;1.23;0.90;;;23.10;46.10;;;;;;5033611;28;20573;-49
2022/11/21 11:20:47;;;;;;;1.63;0.80;;;23.10;46.10;;;;;;5033827;28;20207;-46
2022/11/21 11:23:28;;;;;;;2.05;0.52;;;23.10;46.10;;;;;;5033769;28;20236;-54
2022/11/21 11:26:02;;;;;;;1.42;0.80;;;23.10;46.00;;;;;;5047831;28;20565;-50
2022/11/21 11:28:38;;;;;;;0.77;0.50;;;23.10;46.10;;;;;;5053264;28;20196;-49
2022/11/21 11:31:09;;;;;;;0.70;0.60;;;23.10;46.00;;;;;;5053702;28;20192;-53
2022/11/21 11:33:41;;;;;;;1.60;0.77;;;23.00;46.00;;;;;;5053653;28;20199;-47
2022/11/21 11:36:24;;;;;;;1.00;0.65;;;23.00;46.10;;;;;;5053592;28;20191;-48
2022/11/21 11:38:58;;;;;;;1.08;0.80;;;23.00;46.10;;;;;;5053506;28;20621;-46
2022/11/21 11:47:57;;;;;;;1.05;0.70;;;22.90;46.10;;;;;;4972741;28;20567;-47
2022/11/21 11:50:36;;;;;;;1.48;0.70;;;22.90;46.80;;;;;;5015541;28;20193;-49
2022/11/21 11:53:13;;;;;;;1.40;0.70;;;22.90;46.30;;;;;;5033065;28;20227;-50
2022/11/21 11:55:48;;;;;;;1.05;0.57;;;22.90;46.20;;;;;;5032633;28;20192;-43
2022/11/21 11:58:28;;;;;;;1.52;0.73;;;22.80;46.20;;;;;;5032487;28;20219;-46
2022/11/21 12:01:12;;;;;;;1.35;0.80;;;22.80;46.20;;;;;;5032681;28;20273;-50
2022/11/21 12:03:50;;;;;;;2.05;0.60;;;22.80;46.10;;;;;;5032464;28;20295;-45
2022/11/21 12:06:23;;;;;;;0.90;0.50;;;22.80;46.10;;;;;;5032733;28;20202;-50
2022/11/21 12:08:56;;;;;;;0.98;0.57;;;22.80;46.10;;;;;;5032571;28;20192;-46
2022/11/21 12:17:32;;;;;;;0.88;0.50;;;22.70;46.30;;;;;;5032881;28;20223;-52
2022/11/21 12:20:10;;;;;;;1.25;0.50;;;22.70;46.30;;;;;;5032951;28;20200;-47
2022/11/21 12:22:41;;;;;;;0.70;0.43;;;22.60;46.30;;;;;;5032415;28;20219;-50
2022/11/21 12:25:14;;;;;;;0.70;0.47;;;22.60;46.40;;;;;;5032345;28;20196;-52
2022/11/21 12:27:46;;;;;;;1.40;0.57;;;22.60;46.30;;;;;;5031793;28;20265;-45
2022/11/21 12:30:48;;;;;;;1.52;0.60;;;22.60;46.40;;;;;;5032624;28;20204;-50
2022/11/21 12:33:23;;;;;;;1.00;0.65;;;22.60;46.40;;;;;;5032453;28;20220;-50
2022/11/21 12:36:27;;;;;;;1.58;0.55;;;22.60;46.40;;;;;;5032366;28;20253;-52
2022/11/21 12:39:23;;;;;;;0.77;0.52;;;22.50;46.40;;;;;;5032416;28;20342;-55
2022/11/21 12:45:08;;;;;;;1.08;0.60;;;22.50;46.30;;;;;;5032042;28;20285;-48
2022/11/21 12:56:40;;;;;;;1.20;0.60;;;22.40;46.50;;;;;;5032715;28;20203;-51
2022/11/21 12:59:14;;;;;;;1.05;0.68;;;22.40;46.60;;;;;;5031862;28;20227;-53
2022/11/21 13:01:57;;;;;;;1.20;0.50;;;22.40;46.70;;;;;;5032433;28;20220;-47
2022/11/21 13:04:35;;;;;;;1.27;0.63;;;22.40;46.80;;;;;;5048573;28;20673;-53
2022/11/21 13:07:07;;;;;;;0.70;0.50;;;22.30;46.70;;;;;;5051787;28;20233;-50
2022/11/21 13:09:43;;;;;;;1.52;0.60;;;22.30;46.70;;;;;;5051652;28;20671;-53
2022/11/21 13:12:19;;;;;;;1.33;0.70;;;22.30;46.80;;;;;;5051199;28;20219;-51
2022/11/21 13:14:54;;;;;;;0.90;0.60;;;22.30;46.90;;;;;;5041987;28;20378;-51
2022/11/21 13:17:42;;;;;;;0.47;0.30;;;22.30;46.80;;;;;;5031753;28;20196;-47
2022/11/21 13:20:24;;;;;;;1.08;0.60;;;22.30;46.80;;;;;;5031431;28;20200;-49
2022/11/21 13:22:57;;;;;;;1.55;0.50;;;22.30;46.80;;;;;;5030912;28;20252;-52
2022/11/21 13:25:51;;;;;;;1.75;0.60;;;22.20;46.80;;;;;;5030875;28;20223;-55
2022/11/21 13:28:38;;;;;;;0.38;0.38;;;22.20;46.90;;;;;;5030826;28;20294;-49
2022/11/21 13:31:33;;;;;;;1.67;0.60;;;22.20;46.90;;;;;;5037856;28;20191;-46
2022/11/21 13:34:04;;;;;;;0.88;0.60;;;22.20;47.00;;;;;;5051567;28;20202;-48
2022/11/21 13:36:45;;;;;;;1.10;0.40;;;22.20;47.10;;;;;;5051113;28;20196;-46
2022/11/21 13:39:39;;;;;;;0.80;0.60;;;22.10;47.10;;;;;;5051134;28;20231;-42
2022/11/21 13:45:22;;;;;;;1.40;0.50;;;22.10;47.20;;;;;;5040033;28;20611;-47
2022/11/21 13:48:21;;;;;;;1.70;0.52;;;22.10;47.20;;;;;;5030892;28;20244;-48
2022/11/21 13:51:20;;;;;;;1.33;0.55;;;22.10;47.20;;;;;;5031104;28;20485;-46
2022/11/21 13:54:34;;;;;;;1.55;0.50;;;22.10;47.20;;;;;;5033564;28;20189;-47
2022/11/21 13:57:19;;;;;;;0.60;0.40;;;22.10;47.20;;;;;;4969595;28;20670;-43
2022/11/21 14:00:04;;;;;;;1.00;0.63;;;22.00;47.20;;;;;;5024745;28;20234;-49
2022/11/21 14:03:28;;;;;;;1.85;0.77;;;22.00;47.30;;;;;;5031240;28;20266;-43
2022/11/21 14:06:23;;;;;;;0.70;0.50;;;22.00;47.30;;;;;;4989310;28;20224;-46
2022/11/21 14:09:28;;;;;;;0.68;0.52;;;22.00;47.30;;;;;;4989556;28;20202;-47